Time;durP1;ratioP1;P1;durP2;ratioP2;P2;SDS_P1;SDS_P2;PMS_P1;PMS_P2;Temp;Humidity;BMP_temperature;BMP_pressure;BME280_temperature;BME280_humidity;BME280_pressure;Samples;Min_cycle;Max_cycle;Signal;HPM_P1;HPM_P2
2021/07/23 00:02:12;;;;;;;12.52;4.43;;;;;;;10.95;100.00;100976.25;4864923;29;20040;-80
2021/07/23 00:04:38;;;;;;;10.68;3.85;;;;;;;11.03;100.00;100977.03;4849325;29;20037;-80
2021/07/23 00:07:03;;;;;;;10.88;3.38;;;;;;;11.02;100.00;100975.28;4849272;29;20483;-80
2021/07/23 00:09:32;;;;;;;10.73;3.65;;;;;;;11.11;100.00;100976.91;4849559;29;20036;-79
2021/07/23 00:11:57;;;;;;;11.77;3.78;;;;;;;11.01;100.00;100973.59;4849003;29;20033;-80
2021/07/23 00:14:25;;;;;;;11.52;3.60;;;;;;;10.93;100.00;100970.22;4865265;29;20040;-80
2021/07/23 00:16:50;;;;;;;7.40;3.40;;;;;;;11.01;100.00;100968.41;4865971;29;20112;-80
2021/07/23 00:19:15;;;;;;;8.88;3.45;;;;;;;10.97;100.00;100975.38;4849088;29;20551;-80
2021/07/23 00:21:41;;;;;;;6.85;3.38;;;;;;;10.99;100.00;100983.13;4848557;29;20029;-79
2021/07/23 00:24:08;;;;;;;10.15;3.47;;;;;;;10.93;100.00;100975.41;4848611;29;20446;-80
2021/07/23 00:26:34;;;;;;;7.50;3.42;;;;;;;10.92;100.00;100979.75;4848836;29;20056;-80
2021/07/23 00:28:59;;;;;;;6.85;3.35;;;;;;;11.00;100.00;100977.91;4848499;29;20059;-79
2021/07/23 00:31:25;;;;;;;11.68;3.95;;;;;;;11.07;100.00;100982.13;4848188;29;20029;-79
2021/07/23 00:33:50;;;;;;;7.03;3.60;;;;;;;11.12;100.00;100976.91;4847753;29;20449;-79
2021/07/23 00:36:15;;;;;;;8.60;3.85;;;;;;;11.16;100.00;100983.75;4847380;29;20493;-79
2021/07/23 00:38:40;;;;;;;8.73;4.00;;;;;;;11.20;100.00;100971.59;4846631;29;20030;-79
2021/07/23 00:41:06;;;;;;;7.50;3.35;;;;;;;11.25;100.00;100962.00;4861775;29;20113;-79
2021/07/23 00:43:31;;;;;;;10.90;3.65;;;;;;;11.36;100.00;100974.81;4845994;29;20034;-79
2021/07/23 00:45:56;;;;;;;7.30;3.58;;;;;;;11.44;100.00;100978.16;4846010;29;20095;-79
2021/07/23 00:48:23;;;;;;;8.52;3.67;;;;;;;11.52;100.00;100971.97;4862567;29;20459;-79
2021/07/23 00:50:48;;;;;;;8.15;3.65;;;;;;;11.56;100.00;100961.53;4862833;29;20380;-79
2021/07/23 00:53:15;;;;;;;6.80;3.38;;;;;;;11.57;100.00;100969.28;4862716;29;20033;-79
2021/07/23 00:55:42;;;;;;;6.78;3.92;;;;;;;11.53;100.00;100963.31;4862735;29;20044;-79
2021/07/23 00:58:09;;;;;;;9.63;4.20;;;;;;;11.56;100.00;100970.19;4845716;29;20036;-79
2021/07/23 01:00:36;;;;;;;8.60;4.05;;;;;;;11.58;100.00;100963.25;4846136;29;20128;-79
2021/07/23 01:03:03;;;;;;;7.53;3.55;;;;;;;11.62;100.00;100962.31;4862407;29;20040;-79
2021/07/23 01:05:28;;;;;;;11.90;4.18;;;;;;;11.71;100.00;100962.16;4845621;29;20076;-79
2021/07/23 01:07:54;;;;;;;11.93;3.78;;;;;;;11.82;100.00;100958.50;4845855;29;20064;-79
2021/07/23 01:10:19;;;;;;;7.78;3.58;;;;;;;11.91;100.00;100955.78;4846251;29;20025;-79
2021/07/23 01:12:44;;;;;;;8.68;3.70;;;;;;;11.92;100.00;100957.53;4862616;29;20036;-79
2021/07/23 01:15:10;;;;;;;12.65;3.83;;;;;;;11.95;100.00;100957.47;4845531;29;20059;-79
2021/07/23 01:17:37;;;;;;;11.82;4.40;;;;;;;11.95;100.00;100952.28;4845517;29;20025;-79
2021/07/23 01:20:17;;;;;;;6.97;3.67;;;;;;;12.08;100.00;100952.91;4845560;29;20068;-79
2021/07/23 01:22:42;;;;;;;8.38;3.70;;;;;;;12.14;100.00;100953.66;4845536;29;20037;-79
2021/07/23 01:25:09;;;;;;;8.48;3.90;;;;;;;12.23;100.00;100950.03;4862024;29;20029;-79
2021/07/23 01:27:40;;;;;;;7.60;3.80;;;;;;;12.30;100.00;100953.34;4862139;29;20032;-79
2021/07/23 01:30:07;;;;;;;8.73;4.10;;;;;;;12.34;100.00;100949.81;4862858;29;20136;-79
2021/07/23 01:32:33;;;;;;;8.35;3.72;;;;;;;12.33;100.00;100946.34;4847035;29;20030;-79
2021/07/23 01:34:59;;;;;;;9.80;3.92;;;;;;;12.43;100.00;100942.66;4846704;29;20052;-79
2021/07/23 01:37:28;;;;;;;6.82;3.50;;;;;;;12.42;100.00;100938.38;4846875;29;20038;-79
2021/07/23 01:39:53;;;;;;;8.02;4.22;;;;;;;12.49;100.00;100935.66;4845624;29;20040;-79
2021/07/23 01:42:19;;;;;;;7.70;3.72;;;;;;;12.55;100.00;100936.38;4845547;29;20025;-79
2021/07/23 01:44:44;;;;;;;9.27;3.78;;;;;;;12.63;100.00;100933.63;4862342;29;20076;-80
2021/07/23 01:47:10;;;;;;;6.45;3.50;;;;;;;12.71;100.00;100936.06;4862454;29;20029;-80
2021/07/23 01:49:35;;;;;;;7.97;3.92;;;;;;;12.67;100.00;100932.66;4862827;29;20399;-79
2021/07/23 01:52:00;;;;;;;10.27;3.58;;;;;;;12.71;100.00;100930.84;4861949;29;20471;-79
2021/07/23 01:54:26;;;;;;;10.57;4.05;;;;;;;12.67;100.00;100930.06;4862053;29;20048;-79
2021/07/23 01:56:51;;;;;;;9.20;4.15;;;;;;;12.75;100.00;100932.53;4845451;29;20040;-80
2021/07/23 01:59:16;;;;;;;8.70;3.63;;;;;;;12.74;100.00;100936.00;4845656;29;20044;-80
2021/07/23 02:01:41;;;;;;;7.57;3.70;;;;;;;12.74;100.00;100933.38;4846194;29;20033;-80
2021/07/23 02:04:07;;;;;;;8.10;3.92;;;;;;;12.78;100.00;100933.31;4845684;29;20034;-80
2021/07/23 02:06:32;;;;;;;7.55;3.80;;;;;;;12.82;100.00;100934.09;4862317;29;20056;-79
2021/07/23 02:08:57;;;;;;;10.98;4.20;;;;;;;12.72;100.00;100936.03;4862221;29;20078;-79
2021/07/23 02:11:23;;;;;;;9.80;3.72;;;;;;;12.80;100.00;100931.50;4845582;29;20033;-79
2021/07/23 02:13:48;;;;;;;11.25;3.85;;;;;;;12.84;100.00;100927.13;4861889;29;20100;-79
2021/07/23 02:16:13;;;;;;;9.60;4.15;;;;;;;12.95;100.00;100935.53;4845585;29;20028;-80
2021/07/23 02:18:38;;;;;;;10.23;3.97;;;;;;;12.93;100.00;100928.63;4862582;29;20029;-79
2021/07/23 02:21:07;;;;;;;7.13;3.63;;;;;;;12.92;100.00;100933.00;4845421;29;20037;-79
2021/07/23 02:23:32;;;;;;;9.38;3.67;;;;;;;12.93;100.00;100931.25;4862351;29;20025;-79
2021/07/23 02:25:58;;;;;;;9.90;3.80;;;;;;;12.96;100.00;100928.56;4845876;29;20029;-80
2021/07/23 02:28:23;;;;;;;8.05;3.60;;;;;;;12.91;100.00;100933.91;4845723;29;20026;-79
2021/07/23 02:30:48;;;;;;;7.95;3.58;;;;;;;12.93;100.00;100932.13;4845461;29;20059;-79
2021/07/23 02:33:13;;;;;;;8.95;3.67;;;;;;;12.93;100.00;100928.63;4845874;29;20520;-80
2021/07/23 02:35:39;;;;;;;9.60;4.05;;;;;;;12.87;100.00;100930.50;4862236;29;20032;-80
2021/07/23 02:38:04;;;;;;;9.48;4.25;;;;;;;12.86;100.00;100938.34;4862137;29;20041;-79
2021/07/23 02:40:29;;;;;;;10.82;4.20;;;;;;;12.78;100.00;100933.31;4862153;29;20038;-80
2021/07/23 02:42:55;;;;;;;8.70;3.92;;;;;;;12.78;100.00;100932.44;4861810;29;20033;-80
2021/07/23 02:45:20;;;;;;;10.02;4.32;;;;;;;12.77;100.00;100925.50;4844980;29;20033;-80
2021/07/23 02:47:45;;;;;;;10.02;4.22;;;;;;;12.80;100.00;100935.84;4861692;29;20033;-79
2021/07/23 02:50:11;;;;;;;9.45;3.85;;;;;;;12.78;100.00;100927.25;4844978;29;20037;-79
2021/07/23 02:52:36;;;;;;;8.38;4.05;;;;;;;12.80;100.00;100931.50;4845777;29;20060;-79
2021/07/23 02:55:03;;;;;;;7.00;3.78;;;;;;;12.81;100.00;100922.84;4845850;29;20033;-79
2021/07/23 02:57:28;;;;;;;13.15;4.13;;;;;;;12.80;100.00;100930.66;4844744;29;20038;-79
2021/07/23 02:59:53;;;;;;;9.02;4.63;;;;;;;12.80;100.00;100920.25;4845002;29;20035;-79
2021/07/23 03:02:19;;;;;;;11.15;4.40;;;;;;;12.85;100.00;100926.22;4861944;29;20029;-79
2021/07/23 03:04:44;;;;;;;9.73;4.60;;;;;;;12.85;100.00;100923.63;4848219;29;20479;-80
2021/07/23 03:07:09;;;;;;;10.52;4.57;;;;;;;12.81;100.00;100933.25;4848566;29;20040;-79
2021/07/23 03:09:34;;;;;;;14.50;4.75;;;;;;;12.82;100.00;100924.53;4865532;29;20029;-79
2021/07/23 03:12:00;;;;;;;10.73;4.75;;;;;;;12.71;100.00;100931.69;4848887;29;20041;-80
2021/07/23 03:14:25;;;;;;;10.25;5.15;;;;;;;12.54;100.00;100932.06;4865575;29;20387;-80
2021/07/23 03:16:50;;;;;;;8.35;4.85;;;;;;;12.57;100.00;100926.78;4865576;29;20120;-79
2021/07/23 03:19:15;;;;;;;9.27;4.68;;;;;;;12.63;100.00;100924.06;4848983;29;20514;-79
2021/07/23 03:21:41;;;;;;;15.27;5.50;;;;;;;12.56;100.00;100919.88;4848967;29;20025;-80
2021/07/23 03:24:06;;;;;;;11.88;5.60;;;;;;;12.61;100.00;100918.03;4849174;29;20038;-80
2021/07/23 03:26:31;;;;;;;11.32;6.00;;;;;;;12.52;100.00;100915.63;4865766;29;20041;-80
2021/07/23 03:28:58;;;;;;;10.40;5.15;;;;;;;12.50;100.00;100916.53;4848736;29;20400;-80
2021/07/23 03:31:24;;;;;;;9.68;5.18;;;;;;;12.55;100.00;100918.16;4848692;29;20030;-80
2021/07/23 03:33:50;;;;;;;10.25;5.80;;;;;;;12.55;100.00;100910.34;4848925;29;20120;-80
2021/07/23 03:36:15;;;;;;;15.38;6.50;;;;;;;12.58;100.00;100907.69;4849105;29;20044;-80
2021/07/23 03:38:40;;;;;;;14.13;6.65;;;;;;;12.57;100.00;100900.78;4848842;29;20036;-79
2021/07/23 03:41:06;;;;;;;13.85;5.60;;;;;;;12.61;100.00;100897.22;4849091;29;20513;-79
2021/07/23 03:43:31;;;;;;;10.73;6.40;;;;;;;12.64;100.00;100909.31;4848702;29;20021;-79
2021/07/23 03:45:56;;;;;;;10.10;5.88;;;;;;;12.69;100.00;100901.41;4849135;29;20475;-80
2021/07/23 03:48:21;;;;;;;11.23;5.68;;;;;;;12.74;100.00;100905.59;4848740;29;20077;-80
2021/07/23 03:50:48;;;;;;;10.85;6.30;;;;;;;12.80;100.00;100904.63;4865542;29;20443;-80
2021/07/23 03:53:14;;;;;;;11.27;5.88;;;;;;;12.74;100.00;100900.41;4849365;29;20025;-80
2021/07/23 03:55:39;;;;;;;11.55;6.05;;;;;;;12.78;100.00;100909.03;4864910;29;20036;-80
2021/07/23 03:58:05;;;;;;;10.95;5.90;;;;;;;12.81;100.00;100906.34;4865193;29;20044;-80
2021/07/23 04:00:30;;;;;;;11.60;5.75;;;;;;;12.85;100.00;100908.00;4865430;29;20571;-79
2021/07/23 04:02:55;;;;;;;9.68;5.90;;;;;;;12.73;100.00;100913.47;4848825;29;20025;-80
2021/07/23 04:05:20;;;;;;;13.00;6.15;;;;;;;12.83;100.00;100910.63;4866330;29;20033;-80
2021/07/23 04:07:46;;;;;;;11.43;6.13;;;;;;;12.90;100.00;100907.00;4849614;29;20037;-80
2021/07/23 04:10:11;;;;;;;12.07;6.40;;;;;;;12.96;100.00;100911.22;4849127;29;20451;-80
2021/07/23 04:12:37;;;;;;;10.38;5.90;;;;;;;13.00;100.00;100912.00;4865666;29;20029;-80
2021/07/23 04:15:06;;;;;;;11.45;5.82;;;;;;;12.97;100.00;100914.69;4864637;29;20036;-80
2021/07/23 04:17:31;;;;;;;10.32;5.57;;;;;;;12.97;100.00;100915.53;4848786;29;20029;-79
2021/07/23 04:19:56;;;;;;;11.05;5.47;;;;;;;13.00;100.00;100919.81;4864705;29;20044;-79
2021/07/23 04:22:22;;;;;;;12.32;6.05;;;;;;;12.97;100.00;100912.06;4864711;29;20080;-79
2021/07/23 04:24:47;;;;;;;9.52;5.22;;;;;;;12.93;100.00;100913.91;4848250;29;20056;-79
2021/07/23 04:27:13;;;;;;;11.50;5.70;;;;;;;12.93;100.00;100906.09;4848251;29;20025;-78
2021/07/23 04:29:39;;;;;;;9.65;6.13;;;;;;;12.90;100.00;100906.16;4848731;29;20036;-78
2021/07/23 04:32:04;;;;;;;10.93;6.00;;;;;;;12.95;100.00;100906.88;4864266;29;20391;-79
2021/07/23 04:34:29;;;;;;;11.00;6.28;;;;;;;13.01;100.00;100909.34;4864589;29;20467;-79
2021/07/23 04:36:58;;;;;;;11.40;6.60;;;;;;;13.11;100.00;100910.84;4864497;29;20041;-79
2021/07/23 04:39:23;;;;;;;11.07;6.15;;;;;;;13.18;100.00;100913.31;4848194;29;20056;-79
2021/07/23 04:41:49;;;;;;;10.75;5.93;;;;;;;13.20;100.00;100912.38;4864395;29;20037;-79
2021/07/23 04:44:14;;;;;;;12.18;5.80;;;;;;;13.21;100.00;100910.63;4847596;29;20090;-80
2021/07/23 04:46:39;;;;;;;10.75;6.28;;;;;;;13.16;100.00;100913.38;4848207;29;20036;-79
2021/07/23 04:49:04;;;;;;;11.63;5.85;;;;;;;13.24;100.00;100914.06;4847853;29;20025;-79
2021/07/23 04:51:30;;;;;;;13.73;5.68;;;;;;;13.24;100.00;100920.97;4847289;29;20052;-79
2021/07/23 04:53:56;;;;;;;10.52;5.70;;;;;;;13.27;100.00;100919.22;4847623;29;20073;-79
2021/07/23 04:56:21;;;;;;;11.45;5.75;;;;;;;13.21;100.00;100916.72;4847239;29;20036;-79
2021/07/23 04:58:46;;;;;;;12.57;5.90;;;;;;;13.14;100.00;100915.13;4847848;29;20026;-79
2021/07/23 05:01:11;;;;;;;10.18;6.13;;;;;;;13.25;100.00;100917.53;4864712;29;20033;-79
2021/07/23 05:03:38;;;;;;;11.45;5.93;;;;;;;13.19;100.00;100915.91;4848560;29;20036;-79
2021/07/23 05:06:07;;;;;;;9.38;5.50;;;;;;;13.26;100.00;100921.84;4847954;29;20486;-80
2021/07/23 05:08:33;;;;;;;13.10;6.32;;;;;;;13.24;100.00;100921.88;4865334;29;20088;-80
2021/07/23 05:11:00;;;;;;;10.38;5.50;;;;;;;13.15;100.00;100914.25;4848026;29;20036;-80
2021/07/23 05:13:26;;;;;;;10.57;6.03;;;;;;;13.25;100.00;100914.94;4848050;29;20032;-79
2021/07/23 05:15:53;;;;;;;13.27;6.18;;;;;;;13.17;100.00;100909.84;4864721;29;20026;-79
2021/07/23 05:18:18;;;;;;;11.85;6.07;;;;;;;13.21;100.00;100919.34;4848426;29;20041;-79
2021/07/23 05:20:44;;;;;;;10.50;6.18;;;;;;;13.28;100.00;100918.31;4864627;29;20030;-79
2021/07/23 05:23:09;;;;;;;13.55;6.45;;;;;;;13.31;100.00;100918.25;4864354;29;20029;-79
2021/07/23 05:25:36;;;;;;;11.65;6.25;;;;;;;13.37;100.00;100916.41;4864157;29;20033;-79
2021/07/23 05:28:01;;;;;;;9.73;6.03;;;;;;;13.38;100.00;100924.16;4864520;29;20041;-79
2021/07/23 05:30:27;;;;;;;13.85;6.70;;;;;;;13.49;100.00;100913.50;4864543;29;20036;-79
2021/07/23 05:32:52;;;;;;;11.48;6.03;;;;;;;13.58;100.00;100919.34;4847722;29;20375;-79
2021/07/23 05:35:18;;;;;;;11.73;6.50;;;;;;;13.65;100.00;100920.03;4848024;29;20128;-79
2021/07/23 05:37:43;;;;;;;14.15;6.72;;;;;;;13.63;100.00;100918.34;4864783;29;20033;-79
2021/07/23 05:40:09;;;;;;;12.82;6.75;;;;;;;13.49;100.00;100919.56;4864622;29;20110;-79
2021/07/23 05:42:34;;;;;;;14.75;7.00;;;;;;;13.65;100.00;100921.78;4864680;29;20128;-79
2021/07/23 05:44:59;;;;;;;12.70;6.95;;;;;;;13.66;100.00;100920.88;4864759;29;20148;-79
2021/07/23 05:47:27;;;;;;;13.73;6.35;;;;;;;13.71;100.00;100916.41;4864594;29;20041;-79
2021/07/23 05:49:52;;;;;;;14.90;7.50;;;;;;;13.71;100.00;100914.66;4864270;29;20041;-79
2021/07/23 05:52:17;;;;;;;12.05;6.88;;;;;;;13.82;100.00;100922.19;4864658;29;20025;-79
2021/07/23 05:54:43;;;;;;;13.13;6.10;;;;;;;13.79;100.00;100923.16;4864761;29;20038;-79
2021/07/23 05:57:08;;;;;;;12.15;6.82;;;;;;;13.78;100.00;100923.19;4864355;29;20029;-79
2021/07/23 05:59:33;;;;;;;10.02;6.00;;;;;;;13.75;100.00;100923.25;4864752;29;20402;-79
2021/07/23 06:01:58;;;;;;;13.45;6.97;;;;;;;13.84;100.00;100912.59;4865138;29;20072;-79
2021/07/23 06:04:24;;;;;;;11.27;6.90;;;;;;;13.87;100.00;100922.94;4864832;29;20064;-79
2021/07/23 06:06:49;;;;;;;14.05;7.43;;;;;;;13.93;100.00;100919.31;4865160;29;20021;-79
2021/07/23 06:09:16;;;;;;;9.70;5.82;;;;;;;13.96;100.00;100925.31;4864886;29;20038;-80
2021/07/23 06:11:41;;;;;;;12.85;7.22;;;;;;;13.90;100.00;100922.84;4848409;29;20520;-80
2021/07/23 06:14:07;;;;;;;14.00;7.47;;;;;;;13.92;100.00;100921.06;4848287;29;20022;-78
2021/07/23 06:16:32;;;;;;;11.85;6.95;;;;;;;14.01;100.00;100931.28;4864495;29;20033;-80
2021/07/23 06:18:59;;;;;;;10.75;7.15;;;;;;;14.09;100.00;100927.59;4847462;29;20045;-78
2021/07/23 06:21:24;;;;;;;12.50;5.85;;;;;;;14.20;100.00;100920.34;4863367;29;20028;-78
2021/07/23 06:23:50;;;;;;;12.60;6.60;;;;;;;14.23;100.00;100925.47;4863286;29;20112;-78
2021/07/23 06:26:15;;;;;;;9.00;5.10;;;;;;;14.18;100.00;100916.91;4863350;29;20026;-78
2021/07/23 06:28:40;;;;;;;10.38;6.13;;;;;;;14.40;100.00;100915.41;4862823;29;20031;-79
2021/07/23 06:31:05;;;;;;;11.43;6.10;;;;;;;14.62;100.00;100915.66;4845862;29;20031;-79
2021/07/23 06:33:31;;;;;;;9.02;5.25;;;;;;;14.72;100.00;100922.34;4844610;29;20022;-78
2021/07/23 06:35:56;;;;;;;8.88;4.88;;;;;;;14.69;100.00;100919.84;4860543;29;20090;-78
2021/07/23 06:38:22;;;;;;;8.90;5.03;;;;;;;14.89;100.00;100916.59;4844125;29;20029;-78
2021/07/23 06:40:47;;;;;;;7.68;4.53;;;;;;;14.96;100.00;100920.75;4861009;29;20036;-78
2021/07/23 06:43:13;;;;;;;11.23;4.85;;;;;;;15.02;100.00;100918.84;4844689;29;20112;-78
2021/07/23 06:45:38;;;;;;;9.00;4.97;;;;;;;14.90;100.00;100923.56;4845049;29;20062;-78
2021/07/23 06:48:04;;;;;;;15.25;4.80;;;;;;;15.06;100.00;100920.47;4844660;29;20025;-78
2021/07/23 06:50:31;;;;;;;9.30;4.50;;;;;;;14.87;100.00;100923.66;4845286;29;20057;-78
2021/07/23 06:52:57;;;;;;;11.60;4.30;;;;;;;14.86;100.00;100929.75;4844698;29;20022;-78
2021/07/23 06:55:22;;;;;;;9.40;4.53;;;;;;;14.82;100.00;100924.69;4844226;29;20062;-77
2021/07/23 06:57:47;;;;;;;11.18;4.57;;;;;;;14.97;100.00;100921.63;4844049;29;20060;-78
2021/07/23 07:00:13;;;;;;;8.52;4.43;;;;;;;14.92;100.00;100926.97;4862063;29;20467;-78
2021/07/23 07:02:38;;;;;;;8.75;3.97;;;;;;;14.87;100.00;100922.78;4863335;29;20113;-79
2021/07/23 07:05:04;;;;;;;8.70;4.40;;;;;;;14.95;100.00;100924.25;4847029;29;20124;-79
2021/07/23 07:07:29;;;;;;;10.88;4.70;;;;;;;15.06;100.00;100925.72;4864963;29;20037;-79
2021/07/23 07:09:54;;;;;;;15.77;5.40;;;;;;;15.10;100.00;100924.69;4847332;29;20033;-79
2021/07/23 07:12:20;;;;;;;9.50;4.63;;;;;;;15.30;100.00;100924.06;4867455;29;20034;-78
2021/07/23 07:14:45;;;;;;;9.77;4.53;;;;;;;15.18;100.00;100933.16;4870818;29;20071;-78
2021/07/23 07:17:11;;;;;;;8.32;4.50;;;;;;;15.24;100.00;100932.09;4855616;29;20110;-78
2021/07/23 07:19:36;;;;;;;10.43;4.55;;;;;;;15.34;100.00;100928.31;4872962;29;20030;-78
2021/07/23 07:22:02;;;;;;;10.35;4.90;;;;;;;15.33;100.00;100934.41;4856151;29;20045;-79
2021/07/23 07:24:27;;;;;;;9.15;4.30;;;;;;;15.19;100.00;100940.94;4871196;29;20064;-78
2021/07/23 07:26:54;;;;;;;11.07;5.43;;;;;;;15.26;100.00;100940.75;4863691;29;20090;-80
2021/07/23 07:29:19;;;;;;;9.13;4.50;;;;;;;15.35;100.00;100943.91;4862566;29;20108;-78
2021/07/23 07:31:45;;;;;;;9.68;4.50;;;;;;;15.38;100.00;100941.22;4846275;29;20502;-78
2021/07/23 07:34:11;;;;;;;14.25;5.28;;;;;;;15.43;100.00;100946.31;4846920;29;20112;-78
2021/07/23 07:36:36;;;;;;;8.55;4.47;;;;;;;15.59;100.00;100938.81;4863554;29;20064;-78
2021/07/23 07:39:03;;;;;;;9.90;4.63;;;;;;;15.68;100.00;100945.53;4845944;29;20558;-78
2021/07/23 07:41:28;;;;;;;8.00;4.13;;;;;;;15.46;100.00;100942.75;4845626;29;20114;-78
2021/07/23 07:43:54;;;;;;;10.00;5.00;;;;;;;15.47;100.00;100944.44;4845209;29;20112;-79
2021/07/23 07:46:19;;;;;;;8.52;4.25;;;;;;;15.27;100.00;100945.94;4846949;29;20085;-78
2021/07/23 07:48:45;;;;;;;9.30;4.97;;;;;;;15.32;100.00;100943.16;4846032;29;20030;-79
2021/07/23 07:51:10;;;;;;;8.93;4.53;;;;;;;15.36;100.00;100945.66;4866526;29;20045;-79
2021/07/23 07:53:36;;;;;;;11.52;4.38;;;;;;;15.56;100.00;100950.22;4865726;29;20021;-79
2021/07/23 07:56:05;;;;;;;14.02;4.43;;;;;;;15.40;100.00;100943.78;4848736;29;20040;-78
2021/07/23 07:58:32;;;;;;;9.45;4.80;;;;;;;15.57;100.00;100943.22;4850179;29;20032;-78
2021/07/23 08:00:57;;;;;;;10.85;3.70;;;;;;;15.52;100.00;100932.94;4849607;29;20088;-79
2021/07/23 08:03:22;;;;;;;12.13;4.20;;;;;;;15.59;100.00;100929.22;4849133;29;20021;-79
2021/07/23 08:05:47;;;;;;;17.05;5.30;;;;;;;15.29;100.00;100932.81;4866220;29;20173;-78
2021/07/23 08:08:13;;;;;;;8.43;4.30;;;;;;;15.40;100.00;100928.97;4849048;29;20401;-78
2021/07/23 08:10:45;;;;;;;9.27;4.60;;;;;;;15.62;100.00;100934.34;4865914;29;20058;-78
2021/07/23 08:13:11;;;;;;;7.47;4.68;;;;;;;15.64;100.00;100936.91;4865785;29;20611;-78
2021/07/23 08:15:36;;;;;;;11.65;4.60;;;;;;;15.76;100.00;100939.13;4865330;29;20062;-78
2021/07/23 08:18:03;;;;;;;9.55;4.25;;;;;;;15.90;100.00;100928.22;4865747;29;20056;-78
2021/07/23 08:20:29;;;;;;;7.28;4.15;;;;;;;15.64;100.00;100934.31;4849647;29;20037;-78
2021/07/23 08:22:54;;;;;;;10.98;4.75;;;;;;;15.56;100.00;100929.31;4865285;29;20025;-78
2021/07/23 08:25:19;;;;;;;13.63;5.10;;;;;;;15.57;100.00;100927.53;4848950;29;20029;-78
2021/07/23 08:27:45;;;;;;;10.10;4.07;;;;;;;15.81;100.00;100924.13;4849096;29;20120;-78
2021/07/23 08:30:10;;;;;;;7.55;4.55;;;;;;;16.04;100.00;100925.09;4848502;29;20037;-78
2021/07/23 08:32:38;;;;;;;10.02;5.25;;;;;;;15.96;100.00;100927.16;4848568;29;20116;-78
2021/07/23 08:35:05;;;;;;;8.57;5.00;;;;;;;16.17;100.00;100929.00;4865851;29;20081;-78
2021/07/23 08:37:30;;;;;;;8.98;4.88;;;;;;;16.17;100.00;100922.94;4849096;29;20026;-80
2021/07/23 08:39:55;;;;;;;10.23;4.78;;;;;;;16.20;100.00;100930.66;4865584;29;20493;-79
2021/07/23 08:42:24;;;;;;;9.25;4.63;;;;;;;16.26;100.00;100922.59;4865741;29;20161;-78
2021/07/23 08:44:50;;;;;;;9.25;4.75;;;;;;;16.10;100.00;100930.13;4849872;29;20029;-78
2021/07/23 08:47:15;;;;;;;11.70;5.30;;;;;;;16.01;100.00;100925.22;4866147;29;20034;-79
2021/07/23 08:49:40;;;;;;;11.60;5.43;;;;;;;16.25;100.00;100929.56;4849084;29;20072;-78
2021/07/23 08:52:05;;;;;;;10.88;4.90;;;;;;;16.43;100.00;100927.22;4865207;29;20085;-80
2021/07/23 08:54:32;;;;;;;10.43;5.00;;;;;;;16.56;100.00;100928.47;4865238;29;20021;-79
2021/07/23 08:56:57;;;;;;;11.13;4.90;;;;;;;16.53;100.00;100924.22;4865445;29;20026;-79
2021/07/23 08:59:22;;;;;;;8.88;4.85;;;;;;;16.51;100.00;100919.94;4865520;29;20041;-79
2021/07/23 09:02:04;;;;;;;8.88;4.90;;;;;;;16.48;100.00;100927.91;4864694;29;20452;-79
2021/07/23 09:04:31;;;;;;;9.30;4.97;;;;;;;16.55;100.00;100922.38;4848562;29;20068;-79
2021/07/23 09:07:27;;;;;;;8.05;5.10;;;;;;;16.55;100.00;100924.13;4865302;29;20037;-79
2021/07/23 09:09:54;;;;;;;10.00;5.18;;;;;;;16.55;100.00;100929.38;4865705;29;20390;-79
2021/07/23 09:12:19;;;;;;;9.60;5.22;;;;;;;16.41;100.00;100921.16;4864778;29;20030;-79
2021/07/23 09:14:45;;;;;;;8.02;5.15;;;;;;;15.98;100.00;100928.81;4849211;29;20022;-79
2021/07/23 09:17:10;;;;;;;9.27;5.35;;;;;;;16.21;100.00;100925.38;4864875;29;20044;-79
2021/07/23 09:19:38;;;;;;;10.52;5.55;;;;;;;16.53;100.00;100928.56;4864804;29;20116;-79
2021/07/23 09:22:05;;;;;;;10.35;5.78;;;;;;;16.55;100.00;100927.59;4864750;29;20025;-80
2021/07/23 09:24:49;;;;;;;8.95;5.55;;;;;;;16.37;100.00;100930.06;4864856;29;20056;-79
2021/07/23 09:27:33;;;;;;;8.98;5.03;;;;;;;16.60;100.00;100922.22;4865251;29;20029;-79
2021/07/23 09:29:59;;;;;;;8.75;4.53;;;;;;;16.52;100.00;100922.47;4848069;29;20499;-80
2021/07/23 09:32:28;;;;;;;7.82;4.82;;;;;;;16.71;100.00;100919.19;4864162;29;20072;-79
2021/07/23 09:35:12;;;;;;;9.30;4.85;;;;;;;16.73;100.00;100918.22;4848266;29;20473;-79
2021/07/23 09:37:57;;;;;;;10.20;4.90;;;;;;;16.71;100.00;100927.03;4848638;29;20436;-79
2021/07/23 09:40:23;;;;;;;10.13;4.95;;;;;;;16.73;100.00;100922.59;4848058;29;20049;-79
2021/07/23 09:42:58;;;;;;;10.55;4.75;;;;;;;16.81;100.00;100917.97;4864208;29;20030;-79
2021/07/23 09:45:33;;;;;;;9.55;5.00;;;;;;;16.86;100.00;100916.00;4864284;29;20030;-79
2021/07/23 09:48:12;;;;;;;19.80;5.43;;;;;;;16.98;100.00;100914.69;4848009;29;20033;-79
2021/07/23 09:50:43;;;;;;;14.07;4.30;;;;;;;16.96;100.00;100920.00;4864417;29;20440;-79
2021/07/23 09:53:10;;;;;;;9.65;4.82;;;;;;;16.72;100.00;100918.28;4863553;29;20410;-79
2021/07/23 09:55:35;;;;;;;10.32;5.32;;;;;;;16.93;100.00;100909.63;4846796;29;20029;-79
2021/07/23 09:58:06;;;;;;;9.93;5.25;;;;;;;17.25;100.00;100910.13;4847329;29;20547;-80
2021/07/23 10:00:37;;;;;;;9.43;5.70;;;;;;;17.29;100.00;100909.06;4864224;29;20037;-80
2021/07/23 10:03:05;;;;;;;9.52;5.13;;;;;;;16.90;99.62;100908.88;4847635;29;20513;-79
2021/07/23 10:05:37;;;;;;;9.00;4.88;;;;;;;16.13;100.00;100909.06;4863783;29;20049;-79
2021/07/23 10:08:08;;;;;;;7.68;4.47;;;;;;;16.68;100.00;100893.94;4846658;29;20032;-80
2021/07/23 10:10:37;;;;;;;7.50;4.45;;;;;;;17.23;98.67;100901.44;4863492;29;20025;-79
2021/07/23 10:13:03;;;;;;;8.60;5.07;;;;;;;17.36;97.61;100904.41;4846233;29;20115;-79
2021/07/23 10:15:29;;;;;;;7.68;4.57;;;;;;;17.44;98.03;100907.59;4863279;29;20030;-79
2021/07/23 10:17:55;;;;;;;7.57;4.90;;;;;;;17.90;95.76;100903.06;4863637;29;20030;-79
2021/07/23 10:20:20;;;;;;;9.75;5.18;;;;;;;18.07;92.48;100902.31;4847459;29;20052;-79
2021/07/23 10:22:52;;;;;;;8.98;5.30;;;;;;;17.79;92.44;100897.41;4863776;29;20040;-79
2021/07/23 10:25:22;;;;;;;7.88;4.80;;;;;;;17.92;92.60;100903.88;4863895;29;20146;-79
2021/07/23 10:27:47;;;;;;;9.88;4.78;;;;;;;18.00;91.08;100901.75;4863643;29;20097;-79
2021/07/23 10:30:33;;;;;;;8.65;4.85;;;;;;;18.00;91.53;100898.28;4846726;29;20025;-79
2021/07/23 10:32:59;;;;;;;9.68;5.03;;;;;;;18.10;93.13;100895.19;4847766;29;20036;-80
2021/07/23 10:35:24;;;;;;;8.40;4.55;;;;;;;18.42;89.90;100890.25;4864040;29;20025;-79
2021/07/23 10:37:54;;;;;;;10.33;4.77;;;;;;;18.20;90.92;100884.28;4868998;29;20033;-79
2021/07/23 10:40:21;;;;;;;7.50;4.28;;;;;;;18.51;91.89;100886.38;4885057;29;20293;-79
2021/07/23 10:42:48;;;;;;;8.70;4.25;;;;;;;18.97;89.20;100881.63;4873951;29;20033;-79
2021/07/23 10:45:15;;;;;;;7.05;4.10;;;;;;;19.25;87.65;100884.59;4862451;29;20025;-79
2021/07/23 10:47:45;;;;;;;8.30;3.33;;;;;;;19.22;84.53;100878.63;4862497;29;20056;-79
2021/07/23 10:50:25;;;;;;;6.15;2.70;;;;;;;19.18;82.83;100883.19;4862714;29;20537;-81
2021/07/23 10:52:52;;;;;;;8.45;3.38;;;;;;;18.75;83.04;100879.13;4863764;29;20056;-79
2021/07/23 10:55:21;;;;;;;6.10;2.92;;;;;;;19.05;86.59;100880.28;4847356;29;20025;-80
2021/07/23 10:58:05;;;;;;;8.52;3.40;;;;;;;19.16;81.73;100885.03;4847998;29;20471;-81
2021/07/23 11:00:53;;;;;;;5.60;3.20;;;;;;;19.39;80.84;100881.25;4864740;29;20486;-81
2021/07/23 11:03:45;;;;;;;6.95;3.50;;;;;;;19.43;82.48;100882.84;4863474;29;20493;-80
2021/07/23 11:06:19;;;;;;;6.43;3.35;;;;;;;19.52;80.88;100877.13;4862480;29;20030;-80
2021/07/23 11:08:55;;;;;;;7.38;3.33;;;;;;;19.81;80.74;100890.59;4846673;29;20025;-80
2021/07/23 11:11:24;;;;;;;6.47;3.08;;;;;;;19.84;80.13;100881.69;4846239;29;20487;-80
2021/07/23 11:13:49;;;;;;;6.65;3.28;;;;;;;19.85;77.31;100873.69;4862865;29;20131;-80